Time;durP1;ratioP1;P1;durP2;ratioP2;P2;SDS_P1;SDS_P2;PMS_P1;PMS_P2;Temp;Humidity;BMP_temperature;BMP_pressure;BME280_temperature;BME280_humidity;BME280_pressure;Samples;Min_cycle;Max_cycle;Signal;HPM_P1;HPM_P2
2023/10/29 00:02:23;;;;;;;15.50;14.10;;;;;;;;;;4983911;28;20433;-44
2023/10/29 00:04:49;;;;;;;10.77;9.77;;;;;;;;;;4983294;28;20883;-44
2023/10/29 00:07:15;;;;;;;8.00;7.20;;;;;;;;;;4986502;28;20465;-44
2023/10/29 00:09:41;;;;;;;9.90;8.93;;;;;;;;;;4986295;28;20434;-44
2023/10/29 00:12:07;;;;;;;10.20;9.20;;;;;;;;;;4983349;28;20429;-44
2023/10/29 00:14:33;;;;;;;11.87;10.77;;;;;;;;;;4983435;28;20856;-43
2023/10/29 00:16:59;;;;;;;10.53;9.50;;;;;;;;;;4984966;28;20450;-44
2023/10/29 00:19:25;;;;;;;9.60;8.80;;;;;;;;;;4982878;28;20848;-44
2023/10/29 00:21:51;;;;;;;8.67;7.80;;;;;;;;;;4983306;28;20500;-44
2023/10/29 00:24:17;;;;;;;7.87;7.07;;;;;;;;;;4982929;28;20472;-44
2023/10/29 00:26:43;;;;;;;13.63;12.53;;;;;;;;;;4988031;28;20904;-44
2023/10/29 00:29:09;;;;;;;12.37;11.27;;;;;;;;;;4973640;28;20433;-45
2023/10/29 00:31:35;;;;;;;11.23;10.23;;;;;;;;;;4981227;28;20582;-44
2023/10/29 00:34:03;;;;;;;11.60;10.50;;;;;;;;;;4983187;28;20418;-44
2023/10/29 00:36:28;;;;;;;12.47;11.40;;;;;;;;;;4982878;28;20427;-44
2023/10/29 00:38:55;;;;;;;12.07;11.03;;;;;;;;;;4984648;28;20787;-44
2023/10/29 00:41:21;;;;;;;12.33;11.33;;;;;;;;;;4985775;28;20438;-44
2023/10/29 00:43:47;;;;;;;13.60;12.40;;;;;;;;;;4986067;28;21052;-44
2023/10/29 00:46:15;;;;;;;12.07;11.07;;;;;;;;;;4980669;28;20411;-44
2023/10/29 00:48:41;;;;;;;11.97;10.97;;;;;;;;;;4978511;28;20465;-44
2023/10/29 00:51:07;;;;;;;12.00;11.00;;;;;;;;;;4985413;28;20435;-44
2023/10/29 00:53:34;;;;;;;12.33;11.33;;;;;;;;;;4984245;28;20442;-44
2023/10/29 00:56:00;;;;;;;11.63;10.63;;;;;;;;;;4984652;28;20855;-44
2023/10/29 00:58:26;;;;;;;12.47;11.47;;;;;;;;;;4983803;28;20424;-44
2023/10/29 01:00:52;;;;;;;13.50;12.40;;;;;;;;;;4984000;28;20442;-44
2023/10/29 01:03:18;;;;;;;11.73;10.73;;;;;;;;;;4979654;28;20460;-44
2023/10/29 01:05:47;;;;;;;13.17;12.13;;;;;;;;;;4984391;28;20769;-44
2023/10/29 01:08:13;;;;;;;17.00;15.60;;;;;;;;;;4983272;28;20915;-43
2023/10/29 01:10:39;;;;;;;17.20;16.00;;;;;;;;;;4981204;28;20468;-44
2023/10/29 01:13:05;;;;;;;15.57;14.37;;;;;;;;;;4984038;28;20455;-44
2023/10/29 01:15:33;;;;;;;12.60;11.57;;;;;;;;;;4981902;28;20416;-44
2023/10/29 01:17:59;;;;;;;15.80;14.60;;;;;;;;;;4982344;28;20420;-45
2023/10/29 01:20:25;;;;;;;19.87;18.30;;;;;;;;;;4981978;28;20436;-44
2023/10/29 01:22:51;;;;;;;15.10;14.00;;;;;;;;;;4986824;28;20469;-45
2023/10/29 01:25:17;;;;;;;15.50;14.30;;;;;;;;;;4982240;28;20423;-44
2023/10/29 01:27:44;;;;;;;16.10;14.90;;;;;;;;;;4979251;28;20412;-44
2023/10/29 01:30:10;;;;;;;21.70;20.30;;;;;;;;;;4981636;28;20933;-45
2023/10/29 01:32:38;;;;;;;38.73;35.60;;;;;;;;;;4981825;28;20933;-45
2023/10/29 01:35:04;;;;;;;31.80;29.50;;;;;;;;;;4984516;28;20422;-45
2023/10/29 01:37:30;;;;;;;32.00;29.50;;;;;;;;;;4983972;28;20903;-44
2023/10/29 01:39:56;;;;;;;31.13;28.87;;;;;;;;;;4986665;28;20489;-45
2023/10/29 01:42:22;;;;;;;36.23;33.17;;;;;;;;;;4984945;28;20406;-45
2023/10/29 01:44:48;;;;;;;41.90;37.90;;;;;;;;;;4977243;28;20840;-44
2023/10/29 01:47:14;;;;;;;39.47;36.03;;;;;;;;;;4984928;28;20404;-44
2023/10/29 01:49:40;;;;;;;31.20;28.80;;;;;;;;;;4982237;28;20415;-45
2023/10/29 01:52:06;;;;;;;28.13;26.07;;;;;;;;;;4984430;28;20411;-45
2023/10/29 01:54:32;;;;;;;35.57;32.63;;;;;;;;;;4981944;28;20907;-44
2023/10/29 01:56:58;;;;;;;52.20;45.60;;;;;;;;;;4983430;28;20423;-45
2023/10/29 01:59:24;;;;;;;30.50;28.23;;;;;;;;;;4978866;28;20887;-45
2023/10/29 02:01:50;;;;;;;47.50;42.90;;;;;;;;;;4983313;28;20429;-44
2023/10/29 02:04:16;;;;;;;41.83;37.93;;;;;;;;;;4982435;28;20874;-44
2023/10/29 02:06:42;;;;;;;60.27;47.90;;;;;;;;;;4980170;28;20908;-44
2023/10/29 02:09:09;;;;;;;49.93;44.70;;;;;;;;;;4983224;28;20921;-45
2023/10/29 02:11:38;;;;;;;53.90;45.80;;;;;;;;;;4981174;28;20923;-45
2023/10/29 02:14:04;;;;;;;22.30;20.80;;;;;;;;;;4981517;28;20520;-45
2023/10/29 02:16:30;;;;;;;18.50;17.20;;;;;;;;;;4981220;28;20427;-44
2023/10/29 02:18:56;;;;;;;16.67;15.40;;;;;;;;;;4986396;28;20420;-45
2023/10/29 02:21:23;;;;;;;16.40;15.13;;;;;;;;;;4977678;28;20495;-44
2023/10/29 02:23:50;;;;;;;20.73;19.30;;;;;;;;;;4981756;28;20464;-44
2023/10/29 02:26:16;;;;;;;20.97;19.57;;;;;;;;;;4979776;28;20421;-45
2023/10/29 02:28:42;;;;;;;18.60;17.30;;;;;;;;;;4980978;28;20418;-45
2023/10/29 02:31:08;;;;;;;16.33;15.13;;;;;;;;;;4984216;28;20514;-45
2023/10/29 02:33:34;;;;;;;16.00;14.80;;;;;;;;;;4982878;28;20452;-45
2023/10/29 02:36:00;;;;;;;15.73;14.53;;;;;;;;;;4984612;28;20864;-45
2023/10/29 02:38:26;;;;;;;18.80;17.47;;;;;;;;;;4980792;28;20789;-45
2023/10/29 02:40:52;;;;;;;18.30;17.00;;;;;;;;;;4976550;28;20958;-45
2023/10/29 02:43:18;;;;;;;15.73;14.53;;;;;;;;;;4984129;28;20554;-45
2023/10/29 02:45:44;;;;;;;13.80;12.77;;;;;;;;;;4981574;28;20406;-45
2023/10/29 02:48:10;;;;;;;16.40;15.00;;;;;;;;;;4984095;28;20407;-44
2023/10/29 02:50:39;;;;;;;15.60;14.40;;;;;;;;;;4980672;28;20489;-45
2023/10/29 02:53:05;;;;;;;16.43;15.17;;;;;;;;;;4983075;28;20467;-44
2023/10/29 02:55:31;;;;;;;13.80;12.80;;;;;;;;;;4979736;28;20430;-44
2023/10/29 02:57:57;;;;;;;13.83;12.73;;;;;;;;;;4982283;28;20423;-45
2023/10/29 03:00:23;;;;;;;13.60;12.53;;;;;;;;;;4983160;28;21024;-45
2023/10/29 03:02:49;;;;;;;14.23;13.13;;;;;;;;;;4979649;28;20946;-45
2023/10/29 03:05:15;;;;;;;13.43;12.40;;;;;;;;;;4982124;28;20409;-44
2023/10/29 03:07:41;;;;;;;14.13;13.03;;;;;;;;;;4980726;28;20843;-44
2023/10/29 03:10:07;;;;;;;15.97;14.70;;;;;;;;;;4980905;28;20829;-44
2023/10/29 03:12:33;;;;;;;15.37;14.13;;;;;;;;;;4980448;28;20515;-44
2023/10/29 03:15:00;;;;;;;14.30;13.10;;;;;;;;;;4986138;28;20450;-44
2023/10/29 03:17:26;;;;;;;13.67;12.47;;;;;;;;;;4982442;28;20825;-43
2023/10/29 03:19:52;;;;;;;13.10;12.00;;;;;;;;;;4977788;28;20449;-44
2023/10/29 03:22:18;;;;;;;12.90;11.83;;;;;;;;;;4972438;28;20504;-45
2023/10/29 03:24:44;;;;;;;15.37;14.10;;;;;;;;;;4980430;28;20527;-44
2023/10/29 03:27:10;;;;;;;14.40;13.30;;;;;;;;;;4975339;28;20486;-45
2023/10/29 03:29:36;;;;;;;14.77;13.57;;;;;;;;;;4981394;28;20509;-45
2023/10/29 03:32:03;;;;;;;17.90;16.70;;;;;;;;;;4985366;28;20427;-45
2023/10/29 03:34:30;;;;;;;20.00;18.63;;;;;;;;;;4977709;28;20755;-45
2023/10/29 03:36:56;;;;;;;19.50;18.20;;;;;;;;;;4976556;28;20459;-45
2023/10/29 03:39:22;;;;;;;20.90;19.43;;;;;;;;;;4986907;28;20857;-44
2023/10/29 03:41:48;;;;;;;19.73;18.37;;;;;;;;;;4984852;28;20793;-45
2023/10/29 03:44:14;;;;;;;23.83;22.13;;;;;;;;;;4987095;28;20514;-45
2023/10/29 03:46:40;;;;;;;24.33;22.63;;;;;;;;;;4983808;28;20758;-45
2023/10/29 03:49:06;;;;;;;26.67;24.77;;;;;;;;;;4983717;28;20975;-45
2023/10/29 03:51:32;;;;;;;29.43;27.23;;;;;;;;;;4983114;28;20793;-44
2023/10/29 03:53:59;;;;;;;71.47;50.37;;;;;;;;;;4984912;28;20447;-45
2023/10/29 03:56:24;;;;;;;126.33;59.07;;;;;;;;;;4986817;28;20915;-45
2023/10/29 03:58:50;;;;;;;146.80;63.47;;;;;;;;;;4982864;28;20507;-45
2023/10/29 04:01:17;;;;;;;139.53;61.37;;;;;;;;;;4984644;28;20961;-45
2023/10/29 04:03:43;;;;;;;129.80;61.57;;;;;;;;;;4983462;28;20902;-45
2023/10/29 04:06:12;;;;;;;130.47;64.17;;;;;;;;;;4984229;28;20483;-45
2023/10/29 04:08:39;;;;;;;111.20;56.10;;;;;;;;;;4983452;28;20420;-45
2023/10/29 04:11:05;;;;;;;100.30;55.10;;;;;;;;;;4988773;28;20436;-45
2023/10/29 04:13:32;;;;;;;117.97;57.90;;;;;;;;;;4985744;28;20542;-45
2023/10/29 04:15:58;;;;;;;89.43;54.03;;;;;;;;;;4981026;28;20423;-45
2023/10/29 04:18:27;;;;;;;103.03;57.10;;;;;;;;;;4981881;28;21047;-45
2023/10/29 04:20:54;;;;;;;112.07;57.43;;;;;;;;;;4984263;28;20913;-44
2023/10/29 04:23:20;;;;;;;106.17;56.03;;;;;;;;;;4986183;28;20464;-44
2023/10/29 04:25:46;;;;;;;122.23;59.47;;;;;;;;;;4983349;28;20424;-45
2023/10/29 04:28:12;;;;;;;80.80;51.97;;;;;;;;;;4986704;28;20927;-44
2023/10/29 04:30:38;;;;;;;85.30;54.60;;;;;;;;;;4984556;28;20967;-44
2023/10/29 04:33:04;;;;;;;67.70;50.40;;;;;;;;;;4979256;28;20907;-45
2023/10/29 04:35:30;;;;;;;65.50;49.20;;;;;;;;;;4986193;28;20883;-45
2023/10/29 04:37:56;;;;;;;50.43;45.07;;;;;;;;;;4971119;28;20429;-44
2023/10/29 04:40:22;;;;;;;41.57;37.83;;;;;;;;;;4967547;28;20486;-44
2023/10/29 04:42:48;;;;;;;22.43;20.93;;;;;;;;;;4983387;28;20929;-44
2023/10/29 04:45:15;;;;;;;19.80;18.40;;;;;;;;;;4982792;28;20410;-44
2023/10/29 04:47:41;;;;;;;20.33;18.93;;;;;;;;;;4982332;28;20412;-44
2023/10/29 04:50:07;;;;;;;23.47;21.97;;;;;;;;;;4984107;28;20824;-44
2023/10/29 04:52:33;;;;;;;19.67;18.37;;;;;;;;;;4982198;28;20443;-45
2023/10/29 04:55:01;;;;;;;12.67;11.67;;;;;;;;;;4983890;28;20420;-44
2023/10/29 04:57:28;;;;;;;12.60;11.60;;;;;;;;;;4980568;28;20415;-44
2023/10/29 04:59:54;;;;;;;11.83;10.83;;;;;;;;;;4981411;28;20451;-44
2023/10/29 05:02:21;;;;;;;13.17;12.07;;;;;;;;;;4983460;28;20409;-44
2023/10/29 05:04:48;;;;;;;12.87;11.83;;;;;;;;;;4982933;28;20523;-44
2023/10/29 05:07:13;;;;;;;11.90;10.90;;;;;;;;;;4982649;28;20415;-44
2023/10/29 05:09:39;;;;;;;15.03;13.80;;;;;;;;;;4981979;28;20423;-45
2023/10/29 05:12:07;;;;;;;13.93;12.80;;;;;;;;;;4988412;28;20500;-44
2023/10/29 05:14:33;;;;;;;12.77;11.83;;;;;;;;;;4984991;28;20425;-44
2023/10/29 05:16:59;;;;;;;14.13;13.00;;;;;;;;;;4980323;28;20975;-44
2023/10/29 05:19:25;;;;;;;12.93;11.93;;;;;;;;;;4980871;28;20759;-44
2023/10/29 05:21:51;;;;;;;12.90;11.87;;;;;;;;;;4983147;28;20417;-44
2023/10/29 05:24:17;;;;;;;13.07;12.00;;;;;;;;;;4985372;28;20524;-44
2023/10/29 05:26:43;;;;;;;14.87;13.77;;;;;;;;;;4983218;28;20418;-44
2023/10/29 05:29:09;;;;;;;16.33;15.13;;;;;;;;;;4977436;28;20780;-44
2023/10/29 05:31:35;;;;;;;13.73;12.60;;;;;;;;;;4983160;28;20432;-45
2023/10/29 05:34:01;;;;;;;13.40;12.33;;;;;;;;;;4984402;28;20413;-44
2023/10/29 05:36:27;;;;;;;12.97;11.97;;;;;;;;;;4985158;28;20927;-44
2023/10/29 05:38:53;;;;;;;10.83;9.83;;;;;;;;;;4982716;28;20908;-44
2023/10/29 05:41:19;;;;;;;10.10;9.20;;;;;;;;;;4984306;28;20490;-44
2023/10/29 05:43:45;;;;;;;12.53;11.53;;;;;;;;;;4982615;28;21046;-44
2023/10/29 05:46:12;;;;;;;11.83;10.93;;;;;;;;;;4981635;28;20405;-44
2023/10/29 05:48:38;;;;;;;12.83;11.83;;;;;;;;;;4982049;28;20419;-44
2023/10/29 05:51:04;;;;;;;10.27;9.37;;;;;;;;;;4981797;28;20520;-44
2023/10/29 05:53:30;;;;;;;9.57;8.67;;;;;;;;;;4985678;28;20439;-45
2023/10/29 05:55:56;;;;;;;11.73;10.73;;;;;;;;;;4980891;28;20431;-44
2023/10/29 05:58:24;;;;;;;10.10;9.20;;;;;;;;;;4982344;28;20407;-44
2023/10/29 06:00:50;;;;;;;9.80;8.80;;;;;;;;;;4982017;28;20948;-45
2023/10/29 06:03:16;;;;;;;8.23;7.43;;;;;;;;;;4981473;28;20559;-44
2023/10/29 06:05:42;;;;;;;9.90;9.00;;;;;;;;;;4981407;28;20902;-44
2023/10/29 06:08:08;;;;;;;9.87;8.90;;;;;;;;;;4975312;28;20412;-45
2023/10/29 06:10:34;;;;;;;10.43;9.53;;;;;;;;;;4984610;28;20464;-44
2023/10/29 06:13:00;;;;;;;10.53;9.63;;;;;;;;;;4979262;28;20444;-44
2023/10/29 06:15:26;;;;;;;10.20;9.30;;;;;;;;;;4980038;28;20417;-43
2023/10/29 06:17:55;;;;;;;11.13;10.03;;;;;;;;;;4982295;28;20427;-45
2023/10/29 06:20:22;;;;;;;10.20;9.40;;;;;;;;;;4984193;28;20431;-44
2023/10/29 06:22:48;;;;;;;10.60;9.60;;;;;;;;;;4986399;28;20408;-44
2023/10/29 06:25:14;;;;;;;10.17;9.23;;;;;;;;;;4981122;28;20489;-44
2023/10/29 06:27:40;;;;;;;9.70;8.90;;;;;;;;;;4983663;28;20415;-44
2023/10/29 06:30:07;;;;;;;10.97;9.97;;;;;;;;;;4977242;28;20718;-44
2023/10/29 06:32:33;;;;;;;10.20;9.27;;;;;;;;;;4984269;28;20408;-44
2023/10/29 06:34:59;;;;;;;10.90;9.90;;;;;;;;;;4982396;28;20417;-44
2023/10/29 06:37:24;;;;;;;9.70;8.80;;;;;;;;;;4983280;28;20414;-44
2023/10/29 06:39:51;;;;;;;10.23;9.33;;;;;;;;;;4981502;28;20479;-45
2023/10/29 06:42:17;;;;;;;12.87;11.80;;;;;;;;;;4982568;28;20416;-44
2023/10/29 06:44:43;;;;;;;11.70;10.70;;;;;;;;;;4982115;28;20544;-44
2023/10/29 06:47:09;;;;;;;12.03;11.03;;;;;;;;;;4981139;28;20476;-44
2023/10/29 06:49:35;;;;;;;13.47;12.43;;;;;;;;;;4985693;28;20562;-44
2023/10/29 06:52:01;;;;;;;11.73;10.73;;;;;;;;;;4980738;28;20412;-44
2023/10/29 06:54:27;;;;;;;11.43;10.50;;;;;;;;;;4984096;28;20632;-44
2023/10/29 06:56:53;;;;;;;13.33;12.13;;;;;;;;;;4982409;28;20417;-44
2023/10/29 06:59:19;;;;;;;13.87;12.57;;;;;;;;;;4984993;28;20797;-44
2023/10/29 07:01:46;;;;;;;12.00;10.93;;;;;;;;;;4984834;28;20522;-44
2023/10/29 07:04:13;;;;;;;13.70;12.70;;;;;;;;;;4979233;28;20958;-44
2023/10/29 07:06:39;;;;;;;14.93;13.83;;;;;;;;;;4977576;28;20412;-44
2023/10/29 07:09:05;;;;;;;17.10;15.90;;;;;;;;;;4983199;28;20443;-44
2023/10/29 07:11:31;;;;;;;17.50;16.30;;;;;;;;;;4983473;28;20459;-44
2023/10/29 07:13:57;;;;;;;16.90;15.70;;;;;;;;;;4985142;28;20432;-44
2023/10/29 07:16:23;;;;;;;16.67;15.50;;;;;;;;;;4986827;28;20464;-44
2023/10/29 07:18:49;;;;;;;16.87;15.67;;;;;;;;;;4986969;28;20431;-45
2023/10/29 07:21:15;;;;;;;15.93;14.63;;;;;;;;;;4991211;23;20575;-43
2023/10/29 07:23:41;;;;;;;13.20;12.20;;;;;;;;;;4975522;28;20561;-43
2023/10/29 07:26:07;;;;;;;14.70;13.57;;;;;;;;;;4966448;28;20417;-43
2023/10/29 07:28:34;;;;;;;12.47;11.50;;;;;;;;;;4965781;28;20478;-44
2023/10/29 07:31:01;;;;;;;15.23;14.03;;;;;;;;;;4966551;28;20480;-44
2023/10/29 07:33:27;;;;;;;15.60;14.50;;;;;;;;;;4965101;28;20495;-43
2023/10/29 07:35:53;;;;;;;16.50;15.20;;;;;;;;;;4965675;28;20520;-43
2023/10/29 07:38:19;;;;;;;16.30;14.93;;;;;;;;;;4964533;28;20413;-44
2023/10/29 07:40:45;;;;;;;18.37;16.97;;;;;;;;;;4970188;28;20447;-43
2023/10/29 07:43:10;;;;;;;16.87;15.67;;;;;;;;;;4964652;28;20842;-43
2023/10/29 07:45:36;;;;;;;21.87;19.77;;;;;;;;;;4961283;28;20422;-43
2023/10/29 07:48:02;;;;;;;16.83;15.43;;;;;;;;;;4955571;28;20417;-43
2023/10/29 07:50:28;;;;;;;13.63;12.70;;;;;;;;;;4964239;28;20434;-44
2023/10/29 07:52:54;;;;;;;17.63;16.33;;;;;;;;;;4972128;28;20500;-43
2023/10/29 07:55:20;;;;;;;17.70;16.47;;;;;;;;;;4964235;28;20445;-43
2023/10/29 07:57:47;;;;;;;14.97;13.80;;;;;;;;;;4968263;28;20473;-44
2023/10/29 08:00:13;;;;;;;15.20;14.00;;;;;;;;;;4962631;28;20421;-43
2023/10/29 08:02:40;;;;;;;12.63;11.63;;;;;;;;;;4961303;28;20474;-43
2023/10/29 08:05:06;;;;;;;12.90;11.90;;;;;;;;;;4974628;28;20468;-43
2023/10/29 08:07:32;;;;;;;12.90;12.00;;;;;;;;;;4966928;28;20405;-43
2023/10/29 08:09:58;;;;;;;13.50;12.40;;;;;;;;;;4965726;28;20791;-43
2023/10/29 08:12:25;;;;;;;13.73;12.67;;;;;;;;;;4966325;28;20489;-43
2023/10/29 08:14:51;;;;;;;13.27;12.17;;;;;;;;;;4966684;28;20444;-43
2023/10/29 08:17:17;;;;;;;14.37;13.27;;;;;;;;;;4961650;28;20419;-43
2023/10/29 08:19:46;;;;;;;13.67;12.77;;;;;;;;;;4966752;28;20455;-43
2023/10/29 08:22:12;;;;;;;14.07;13.03;;;;;;;;;;4958653;28;20474;-43
2023/10/29 08:24:39;;;;;;;12.30;11.30;;;;;;;;;;4962991;28;20973;-44
2023/10/29 08:27:06;;;;;;;13.90;12.90;;;;;;;;;;4966565;28;20416;-44
2023/10/29 08:29:34;;;;;;;15.00;13.83;;;;;;;;;;4959103;28;20438;-44
2023/10/29 08:32:00;;;;;;;16.77;15.57;;;;;;;;;;4964776;28;20507;-44
2023/10/29 08:34:26;;;;;;;14.20;13.17;;;;;;;;;;4963506;28;20979;-43
2023/10/29 08:36:52;;;;;;;13.97;12.77;;;;;;;;;;4964642;28;20414;-43
2023/10/29 08:39:21;;;;;;;18.63;16.70;;;;;;;;;;4961972;28;20430;-44
2023/10/29 08:41:47;;;;;;;14.33;13.20;;;;;;;;;;4963205;28;20441;-43
2023/10/29 08:44:13;;;;;;;15.33;14.03;;;;;;;;;;4963334;28;20517;-43
2023/10/29 08:46:41;;;;;;;13.57;12.40;;;;;;;;;;4965851;28;20450;-43
2023/10/29 08:49:07;;;;;;;14.60;13.60;;;;;;;;;;4969671;28;20889;-43
2023/10/29 08:51:33;;;;;;;15.73;14.57;;;;;;;;;;4963452;28;20431;-43
2023/10/29 08:53:59;;;;;;;15.20;14.10;;;;;;;;;;4967875;28;20416;-43
2023/10/29 08:56:25;;;;;;;16.47;15.27;;;;;;;;;;4964058;28;20422;-43
2023/10/29 08:58:51;;;;;;;18.40;17.13;;;;;;;;;;4959556;28;20423;-43
2023/10/29 09:01:17;;;;;;;16.60;15.40;;;;;;;;;;4968187;28;20469;-44
2023/10/29 09:03:43;;;;;;;16.87;15.67;;;;;;;;;;4964494;28;20459;-43
2023/10/29 09:06:10;;;;;;;17.43;16.23;;;;;;;;;;4966581;28;20968;-43
2023/10/29 09:08:39;;;;;;;16.53;15.33;;;;;;;;;;4963792;28;20534;-43
2023/10/29 09:11:05;;;;;;;17.47;16.17;;;;;;;;;;4965669;28;20435;-43
2023/10/29 09:13:31;;;;;;;15.80;14.57;;;;;;;;;;4962375;28;20475;-43
2023/10/29 09:15:58;;;;;;;15.93;14.73;;;;;;;;;;4964341;28;20429;-43
2023/10/29 09:20:59;;;;;;;19.20;17.70;;;;;;;;;;5228828;23;20224;-44
2023/10/29 09:23:27;;;;;;;16.00;14.90;;;;;;;;;;4954107;28;20537;-44
2023/10/29 09:25:53;;;;;;;16.23;15.13;;;;;;;;;;4954450;28;20433;-44
2023/10/29 09:28:20;;;;;;;16.83;15.73;;;;;;;;;;4954453;28;20553;-44
2023/10/29 09:30:47;;;;;;;17.97;16.63;;;;;;;;;;4944901;28;20798;-44
2023/10/29 09:33:15;;;;;;;15.37;14.30;;;;;;;;;;4935347;29;20414;-44
2023/10/29 09:35:41;;;;;;;15.90;14.77;;;;;;;;;;4937825;29;20421;-44
2023/10/29 09:38:07;;;;;;;14.80;13.70;;;;;;;;;;4936099;29;20575;-44
2023/10/29 09:40:33;;;;;;;14.60;13.50;;;;;;;;;;4939318;29;20444;-44
2023/10/29 09:43:03;;;;;;;14.60;13.60;;;;;;;;;;4935954;29;20424;-44
2023/10/29 09:45:29;;;;;;;15.77;14.67;;;;;;;;;;4935128;29;20485;-44
2023/10/29 09:48:00;;;;;;;18.00;16.80;;;;;;;;;;4934977;29;20506;-44
2023/10/29 09:50:26;;;;;;;16.23;15.13;;;;;;;;;;4934035;29;20473;-44
2023/10/29 09:52:52;;;;;;;16.83;15.70;;;;;;;;;;4939535;29;20415;-44
2023/10/29 09:55:22;;;;;;;15.10;14.00;;;;;;;;;;4935095;29;20830;-44
2023/10/29 09:57:49;;;;;;;15.23;14.03;;;;;;;;;;4942213;29;20416;-44
2023/10/29 10:00:16;;;;;;;15.33;14.17;;;;;;;;;;4934071;29;20438;-45
2023/10/29 10:02:52;;;;;;;15.73;14.70;;;;;;;;;;4937677;29;20763;-44
2023/10/29 10:05:20;;;;;;;16.80;15.60;;;;;;;;;;4936060;29;20431;-44
2023/10/29 10:07:46;;;;;;;18.73;17.43;;;;;;;;;;4937473;29;20418;-44
2023/10/29 10:10:12;;;;;;;16.93;15.83;;;;;;;;;;4933990;29;20460;-44
2023/10/29 10:12:48;;;;;;;21.30;20.00;;;;;;;;;;4934831;29;20501;-44
2023/10/29 10:15:14;;;;;;;44.73;42.10;;;;;;;;;;4930155;29;20402;-44
2023/10/29 10:17:45;;;;;;;69.30;64.53;;;;;;;;;;4934709;29;20445;-45
2023/10/29 10:20:11;;;;;;;69.67;65.30;;;;;;;;;;4926492;29;20434;-44
2023/10/29 10:22:37;;;;;;;71.47;67.07;;;;;;;;;;4934525;29;20409;-44
2023/10/29 10:25:04;;;;;;;104.63;95.97;;;;;;;;;;4934456;29;20461;-44
2023/10/29 10:27:30;;;;;;;122.97;111.97;;;;;;;;;;4934724;29;20546;-44
2023/10/29 10:29:56;;;;;;;142.80;129.30;;;;;;;;;;4934719;29;20982;-44
2023/10/29 10:32:25;;;;;;;80.73;75.77;;;;;;;;;;4934439;29;20419;-44
2023/10/29 10:34:51;;;;;;;43.00;40.90;;;;;;;;;;4938646;29;20867;-45
2023/10/29 10:37:17;;;;;;;43.17;41.00;;;;;;;;;;4934339;29;20438;-44
2023/10/29 10:39:43;;;;;;;52.73;50.03;;;;;;;;;;4933769;29;20867;-44
2023/10/29 10:42:09;;;;;;;51.10;48.43;;;;;;;;;;4935503;29;20442;-45
2023/10/29 10:44:36;;;;;;;42.10;39.90;;;;;;;;;;4934380;29;20570;-44
2023/10/29 10:47:03;;;;;;;37.10;35.10;;;;;;;;;;4934227;29;20382;-44
2023/10/29 10:49:32;;;;;;;43.97;41.67;;;;;;;;;;4937478;29;20870;-44
2023/10/29 10:52:01;;;;;;;61.87;58.13;;;;;;;;;;4938100;29;20385;-44
2023/10/29 10:54:27;;;;;;;63.23;59.47;;;;;;;;;;4938256;29;20415;-45
2023/10/29 10:56:54;;;;;;;74.10;69.37;;;;;;;;;;4938153;29;20402;-44
2023/10/29 10:59:20;;;;;;;116.50;107.50;;;;;;;;;;4937390;29;20410;-44
2023/10/29 11:01:46;;;;;;;86.07;80.60;;;;;;;;;;4942218;29;20420;-45
2023/10/29 11:04:12;;;;;;;88.53;82.93;;;;;;;;;;4940120;29;20875;-44
2023/10/29 11:06:40;;;;;;;62.47;59.10;;;;;;;;;;4941727;29;20410;-44
2023/10/29 11:09:06;;;;;;;74.73;70.30;;;;;;;;;;4944743;29;20419;-44
2023/10/29 11:11:52;;;;;;;46.90;44.43;;;;;;;;;;4937696;29;20501;-45
2023/10/29 11:14:19;;;;;;;90.03;83.43;;;;;;;;;;4931903;29;20486;-46
2023/10/29 11:16:45;;;;;;;68.83;64.43;;;;;;;;;;4949928;29;20418;-46
2023/10/29 11:19:30;;;;;;;52.50;49.20;;;;;;;;;;4953864;29;20786;-44
2023/10/29 11:22:22;;;;;;;54.77;51.67;;;;;;;;;;4936552;29;20441;-44
2023/10/29 11:25:11;;;;;;;78.50;73.47;;;;;;;;;;4950955;29;20869;-44
2023/10/29 11:27:47;;;;;;;101.43;92.07;;;;;;;;;;4946821;28;20392;-44
2023/10/29 11:30:27;;;;;;;112.53;100.93;;;;;;;;;;4936836;29;20507;-44
2023/10/29 11:33:14;;;;;;;80.60;75.33;;;;;;;;;;4944725;29;20441;-44
2023/10/29 11:35:40;;;;;;;65.63;61.70;;;;;;;;;;4956668;29;20542;-45
2023/10/29 11:38:25;;;;;;;61.97;58.47;;;;;;;;;;4956356;29;20479;-45
2023/10/29 11:40:51;;;;;;;54.13;51.13;;;;;;;;;;4955839;28;20448;-45
2023/10/29 11:43:19;;;;;;;45.53;43.13;;;;;;;;;;4955605;29;20432;-45
2023/10/29 11:45:54;;;;;;;39.60;37.50;;;;;;;;;;4937318;29;20386;-44
2023/10/29 11:48:20;;;;;;;56.87;53.47;;;;;;;;;;4937089;29;20392;-45
2023/10/29 11:51:10;;;;;;;34.53;32.73;;;;;;;;;;4936449;29;20414;-44
2023/10/29 11:53:36;;;;;;;32.10;30.37;;;;;;;;;;4950281;29;20409;-46
2023/10/29 11:56:07;;;;;;;32.43;30.73;;;;;;;;;;4956624;29;20886;-45
2023/10/29 11:58:33;;;;;;;39.57;37.43;;;;;;;;;;4945015;28;20397;-44
2023/10/29 12:01:00;;;;;;;42.90;40.50;;;;;;;;;;4935938;29;20505;-43
2023/10/29 12:03:26;;;;;;;27.47;25.87;;;;;;;;;;4936970;29;20474;-44
2023/10/29 12:05:52;;;;;;;27.90;26.30;;;;;;;;;;4938990;29;20442;-45
2023/10/29 12:08:18;;;;;;;22.50;21.20;;;;;;;;;;4950958;29;20452;-44
2023/10/29 12:10:50;;;;;;;19.90;18.70;;;;;;;;;;4936249;29;20457;-44
2023/10/29 12:13:19;;;;;;;21.50;20.20;;;;;;;;;;4953254;29;20458;-44
2023/10/29 12:15:46;;;;;;;20.47;19.20;;;;;;;;;;4955741;29;20463;-44
2023/10/29 12:18:21;;;;;;;23.40;22.00;;;;;;;;;;4944516;29;20805;-44
2023/10/29 12:20:50;;;;;;;24.67;23.07;;;;;;;;;;4935711;29;20434;-44
2023/10/29 12:23:17;;;;;;;22.10;20.80;;;;;;;;;;4938426;29;20470;-44
2023/10/29 12:25:44;;;;;;;24.70;23.20;;;;;;;;;;4934986;29;20429;-44
2023/10/29 12:28:10;;;;;;;21.63;20.30;;;;;;;;;;4937639;29;20465;-44
2023/10/29 12:30:50;;;;;;;16.73;15.73;;;;;;;;;;4939393;29;20494;-44
2023/10/29 12:33:26;;;;;;;14.93;13.83;;;;;;;;;;4930129;29;20785;-44
2023/10/29 12:35:58;;;;;;;19.97;18.60;;;;;;;;;;4952838;29;20979;-44
2023/10/29 12:38:25;;;;;;;17.60;16.40;;;;;;;;;;4955866;28;20474;-44
2023/10/29 12:41:21;;;;;;;17.10;15.90;;;;;;;;;;4945277;29;20939;-44
2023/10/29 12:43:49;;;;;;;16.60;15.40;;;;;;;;;;4941064;29;20469;-44
2023/10/29 12:46:16;;;;;;;13.03;12.13;;;;;;;;;;4936006;29;20903;-44
2023/10/29 12:49:01;;;;;;;14.13;13.00;;;;;;;;;;4936573;29;20831;-44
2023/10/29 12:51:34;;;;;;;10.37;9.47;;;;;;;;;;4937862;29;20436;-43
2023/10/29 12:54:17;;;;;;;13.10;12.00;;;;;;;;;;4936103;29;20504;-44
2023/10/29 12:56:53;;;;;;;11.73;10.83;;;;;;;;;;4942313;29;20423;-44
2023/10/29 12:59:20;;;;;;;18.63;16.80;;;;;;;;;;4935141;29;20426;-44
2023/10/29 13:01:56;;;;;;;14.77;13.57;;;;;;;;;;4936121;29;20501;-44
2023/10/29 13:04:23;;;;;;;15.87;14.57;;;;;;;;;;4935017;29;20462;-45
2023/10/29 13:06:49;;;;;;;13.50;12.30;;;;;;;;;;4936104;29;20422;-45
2023/10/29 13:09:20;;;;;;;19.77;17.77;;;;;;;;;;4937165;29;20425;-45
2023/10/29 13:11:51;;;;;;;16.10;14.80;;;;;;;;;;4939239;29;20423;-44
2023/10/29 13:14:17;;;;;;;9.83;9.00;;;;;;;;;;4935685;29;20418;-44
2023/10/29 13:16:43;;;;;;;10.67;9.73;;;;;;;;;;4935514;29;20419;-44
2023/10/29 13:19:11;;;;;;;14.10;12.60;;;;;;;;;;4938865;29;20464;-44
2023/10/29 13:21:37;;;;;;;8.77;7.93;;;;;;;;;;4951543;29;20911;-45
2023/10/29 13:24:06;;;;;;;9.60;8.70;;;;;;;;;;4935497;29;21025;-45
2023/10/29 13:26:32;;;;;;;9.30;8.47;;;;;;;;;;4940024;29;20982;-44
2023/10/29 13:28:58;;;;;;;11.17;10.13;;;;;;;;;;4935136;29;20448;-44
2023/10/29 13:31:24;;;;;;;10.23;9.33;;;;;;;;;;4935015;29;20469;-44
2023/10/29 13:33:50;;;;;;;9.67;8.77;;;;;;;;;;4935459;29;20412;-44
2023/10/29 13:36:16;;;;;;;9.60;8.77;;;;;;;;;;4938924;28;20426;-44
2023/10/29 13:38:42;;;;;;;10.60;9.70;;;;;;;;;;4935317;29;20455;-44
2023/10/29 13:41:11;;;;;;;9.37;8.47;;;;;;;;;;4934412;29;20502;-45
2023/10/29 13:43:37;;;;;;;8.33;7.50;;;;;;;;;;4935523;29;20809;-45
2023/10/29 13:46:03;;;;;;;9.23;8.40;;;;;;;;;;4935199;29;20894;-44
2023/10/29 13:48:30;;;;;;;10.73;9.83;;;;;;;;;;4937222;29;20771;-45
2023/10/29 13:50:56;;;;;;;8.93;8.03;;;;;;;;;;4934220;29;20487;-44
2023/10/29 13:53:23;;;;;;;9.17;8.30;;;;;;;;;;4935133;29;20469;-45
2023/10/29 13:55:49;;;;;;;7.43;6.60;;;;;;;;;;4935066;29;20422;-44
2023/10/29 13:58:15;;;;;;;8.57;7.67;;;;;;;;;;4935346;29;20449;-45
2023/10/29 14:00:41;;;;;;;7.40;6.70;;;;;;;;;;4934153;29;20458;-45
2023/10/29 14:03:09;;;;;;;8.07;7.03;;;;;;;;;;4934969;29;20440;-44
2023/10/29 14:05:35;;;;;;;8.63;7.80;;;;;;;;;;4938339;29;20399;-45
2023/10/29 14:08:01;;;;;;;7.90;6.90;;;;;;;;;;4934913;29;20414;-45
2023/10/29 14:10:27;;;;;;;7.23;6.50;;;;;;;;;;4934288;29;20481;-44
2023/10/29 14:12:53;;;;;;;7.20;6.50;;;;;;;;;;4934860;29;20432;-45
2023/10/29 14:15:19;;;;;;;8.07;7.27;;;;;;;;;;4936608;29;20403;-45
2023/10/29 14:17:45;;;;;;;7.73;6.67;;;;;;;;;;4934672;29;20418;-44
2023/10/29 14:20:11;;;;;;;8.80;7.90;;;;;;;;;;4934894;28;20429;-44
2023/10/29 14:22:37;;;;;;;8.40;7.63;;;;;;;;;;4937763;29;20511;-44